Time;durP1;ratioP1;P1;durP2;ratioP2;P2;SDS_P1;SDS_P2;PMS_P1;PMS_P2;Temp;Humidity;BMP_temperature;BMP_pressure;BME280_temperature;BME280_humidity;BME280_pressure;Samples;Min_cycle;Max_cycle;Signal;HPM_P1;HPM_P2
2022/03/15 00:02:03;;;;;;;6.63;2.80;;;;;;;9.88;79.64;101217.63;5110544;28;20212;-69
2022/03/15 00:04:29;;;;;;;6.25;2.92;;;;;;;9.85;79.78;101217.63;5108984;28;20501;-69
2022/03/15 00:06:56;;;;;;;5.28;2.90;;;;;;;9.73;80.38;101201.84;5112481;28;20023;-69
2022/03/15 00:09:21;;;;;;;5.95;2.92;;;;;;;9.79;80.32;101214.16;5109709;28;20023;-69
2022/03/15 00:11:46;;;;;;;4.70;2.65;;;;;;;9.69;79.97;101210.72;5095969;28;20104;-69
2022/03/15 00:14:14;;;;;;;11.32;4.05;;;;;;;9.56;80.26;101193.16;5092217;28;20028;-69
2022/03/15 00:16:40;;;;;;;4.90;3.00;;;;;;;9.62;80.44;101197.53;5091702;28;20027;-69
2022/03/15 00:19:06;;;;;;;7.07;3.40;;;;;;;9.67;80.71;101199.22;5098404;28;20051;-69
2022/03/15 00:21:32;;;;;;;6.45;3.03;;;;;;;9.51;80.94;101173.72;5105336;28;20402;-69
2022/03/15 00:23:59;;;;;;;5.03;3.10;;;;;;;9.47;81.32;101177.31;5112252;28;20143;-69
2022/03/15 00:26:25;;;;;;;5.18;2.75;;;;;;;9.39;81.30;101178.28;5089923;28;20509;-69
2022/03/15 00:28:51;;;;;;;5.55;2.90;;;;;;;9.43;81.35;101194.16;5110789;28;20028;-69
2022/03/15 00:31:16;;;;;;;4.60;2.45;;;;;;;9.44;82.40;101192.41;5097515;28;20089;-69
2022/03/15 00:33:43;;;;;;;7.10;3.03;;;;;;;9.45;82.51;101197.69;5091390;28;20035;-69
2022/03/15 00:36:08;;;;;;;6.13;2.67;;;;;;;9.50;81.63;101189.69;5091742;28;20020;-70
2022/03/15 00:38:34;;;;;;;6.55;2.72;;;;;;;9.44;81.55;101182.63;5073325;28;20036;-70
2022/03/15 00:40:59;;;;;;;5.93;3.05;;;;;;;9.15;81.66;101136.91;5101100;28;20030;-70
2022/03/15 00:43:25;;;;;;;4.97;2.60;;;;;;;9.39;81.66;101175.63;5100358;28;20069;-69
2022/03/15 00:45:51;;;;;;;4.03;2.33;;;;;;;9.45;81.57;101173.78;5091169;28;20035;-69
2022/03/15 00:48:17;;;;;;;6.00;2.50;;;;;;;9.48;81.31;101178.19;5074609;28;20028;-69
2022/03/15 00:50:43;;;;;;;7.38;3.25;;;;;;;9.46;81.47;101170.22;5111318;28;20490;-69
2022/03/15 00:53:10;;;;;;;7.70;2.90;;;;;;;9.46;80.55;101178.19;5111587;28;20157;-69
2022/03/15 00:55:36;;;;;;;5.93;3.05;;;;;;;9.53;79.96;101181.69;5111425;28;20024;-69
2022/03/15 00:58:01;;;;;;;4.93;2.80;;;;;;;9.56;80.46;101176.31;5107432;28;20020;-69
2022/03/15 01:00:31;;;;;;;5.32;2.53;;;;;;;9.57;79.69;101184.28;5104956;28;20020;-69
2022/03/15 01:02:57;;;;;;;6.63;3.33;;;;;;;9.43;80.00;101175.56;5103016;28;20032;-69
2022/03/15 01:05:24;;;;;;;5.38;3.05;;;;;;;9.47;80.25;101182.63;5111157;28;20031;-69
2022/03/15 01:07:49;;;;;;;3.97;2.47;;;;;;;9.48;80.15;101167.56;5094343;28;20059;-69
2022/03/15 01:10:15;;;;;;;7.18;2.63;;;;;;;9.51;81.36;101181.69;5090334;28;20172;-69
2022/03/15 01:12:40;;;;;;;6.20;2.17;;;;;;;9.38;81.64;101177.41;5090146;28;20055;-69
2022/03/15 01:15:07;;;;;;;4.72;2.92;;;;;;;9.20;82.44;101169.59;5089444;28;20483;-69
2022/03/15 01:17:34;;;;;;;5.40;3.03;;;;;;;9.23;82.32;101165.16;5092825;28;20020;-69
2022/03/15 01:19:59;;;;;;;7.15;3.45;;;;;;;9.24;82.17;101174.00;5090332;28;20391;-69
2022/03/15 01:22:25;;;;;;;5.13;3.53;;;;;;;9.02;81.66;101164.44;5100153;28;20023;-69
2022/03/15 01:24:50;;;;;;;5.07;2.78;;;;;;;9.00;82.05;101164.47;5110925;28;20105;-69
2022/03/15 01:27:16;;;;;;;6.35;3.10;;;;;;;9.10;81.59;101171.47;5110747;28;20539;-70
2022/03/15 01:29:43;;;;;;;5.28;2.88;;;;;;;9.14;81.33;101167.88;5110109;28;20056;-70
2022/03/15 01:32:08;;;;;;;4.28;2.58;;;;;;;9.12;81.10;101163.47;5089703;28;20028;-70
2022/03/15 01:34:34;;;;;;;6.05;2.72;;;;;;;9.06;81.43;101176.81;5090508;28;20081;-70
2022/03/15 01:36:59;;;;;;;7.03;2.50;;;;;;;9.05;81.38;101175.03;5092775;28;20050;-70
2022/03/15 01:39:25;;;;;;;5.55;2.45;;;;;;;9.09;81.96;101174.97;5091325;28;20111;-70
2022/03/15 01:41:50;;;;;;;9.07;2.70;;;;;;;9.11;81.24;101182.94;5090978;28;20024;-70
2022/03/15 01:44:18;;;;;;;4.18;2.30;;;;;;;9.10;81.29;101173.22;5090079;28;20113;-70
2022/03/15 01:46:46;;;;;;;7.00;2.58;;;;;;;9.04;81.26;101160.88;5090329;28;20023;-69
2022/03/15 01:49:12;;;;;;;8.32;2.88;;;;;;;9.09;81.29;101163.50;5089848;28;20501;-69
2022/03/15 01:51:40;;;;;;;5.65;3.15;;;;;;;9.05;81.63;101167.06;5090445;28;20028;-69
2022/03/15 01:54:10;;;;;;;6.50;2.35;;;;;;;9.04;81.94;101171.47;5092559;28;20690;-69
2022/03/15 01:56:40;;;;;;;5.72;3.58;;;;;;;8.96;81.98;101151.25;5089808;28;20028;-69
2022/03/15 01:59:06;;;;;;;4.97;2.80;;;;;;;9.08;82.56;101148.47;5090210;28;20032;-69
2022/03/15 02:01:32;;;;;;;6.05;3.35;;;;;;;9.32;81.49;101170.34;5092957;28;20024;-69
2022/03/15 02:03:57;;;;;;;5.53;2.90;;;;;;;9.28;80.41;101160.69;5089656;28;20024;-69
2022/03/15 02:06:23;;;;;;;4.65;3.10;;;;;;;9.23;81.02;101166.91;5092148;28;20373;-69
2022/03/15 02:08:48;;;;;;;5.38;2.95;;;;;;;9.23;81.75;101166.91;5089761;28;20530;-69
2022/03/15 02:11:15;;;;;;;6.90;4.15;;;;;;;9.25;80.75;101175.75;5089356;28;20076;-69
2022/03/15 02:13:41;;;;;;;9.00;4.18;;;;;;;9.21;81.14;101172.25;5089980;28;20020;-69
2022/03/15 02:16:07;;;;;;;7.88;4.43;;;;;;;9.22;81.26;101171.31;5089437;28;20027;-69
2022/03/15 02:18:32;;;;;;;7.25;4.53;;;;;;;9.15;81.57;101150.19;5092050;28;20071;-69
2022/03/15 02:20:58;;;;;;;11.95;5.85;;;;;;;9.25;81.30;101162.47;5089534;28;20039;-69
2022/03/15 02:23:23;;;;;;;6.57;4.60;;;;;;;9.32;81.46;101153.56;5089609;28;20036;-69
2022/03/15 02:25:48;;;;;;;6.90;3.75;;;;;;;9.31;80.94;101149.13;5089218;28;20388;-69
2022/03/15 02:28:14;;;;;;;6.57;4.38;;;;;;;9.39;81.05;101163.22;5089378;28;20140;-69
2022/03/15 02:30:39;;;;;;;8.20;4.18;;;;;;;9.36;80.86;101152.63;5089531;28;20035;-69
2022/03/15 02:33:05;;;;;;;6.53;4.03;;;;;;;9.33;81.36;101164.16;5089578;28;20433;-69
2022/03/15 02:35:30;;;;;;;10.63;3.97;;;;;;;9.22;81.77;101144.78;5071378;28;20030;-69
2022/03/15 02:37:56;;;;;;;7.32;3.83;;;;;;;9.34;81.67;101155.31;5089598;28;20051;-69
2022/03/15 02:40:22;;;;;;;8.25;4.00;;;;;;;9.40;81.57;101149.06;5088895;28;20384;-69
2022/03/15 02:42:47;;;;;;;6.45;3.75;;;;;;;9.35;81.54;101156.19;5073327;28;20593;-69
2022/03/15 02:45:14;;;;;;;5.85;3.85;;;;;;;9.36;81.83;101154.44;5075259;28;20020;-69
2022/03/15 02:47:43;;;;;;;6.15;3.97;;;;;;;9.29;82.23;101150.94;5093817;28;20101;-69
2022/03/15 02:50:09;;;;;;;7.85;3.90;;;;;;;9.21;82.96;101132.41;5093676;28;20055;-69
2022/03/15 02:52:34;;;;;;;8.52;3.60;;;;;;;9.24;82.96;101150.97;5093367;28;20032;-69
2022/03/15 02:55:00;;;;;;;8.77;3.63;;;;;;;9.13;82.82;101144.00;5093356;28;20102;-69
2022/03/15 02:57:26;;;;;;;8.40;3.85;;;;;;;9.21;83.30;101150.09;5073798;28;20024;-69
2022/03/15 02:59:52;;;;;;;7.88;3.63;;;;;;;9.25;83.25;101151.84;5092141;28;20039;-69
2022/03/15 03:02:18;;;;;;;7.53;3.53;;;;;;;9.24;82.87;101158.06;5093173;28;20072;-69
2022/03/15 03:04:43;;;;;;;4.75;3.42;;;;;;;9.16;82.36;101155.47;5085873;28;20020;-69
2022/03/15 03:07:10;;;;;;;7.78;3.65;;;;;;;9.08;81.21;101157.31;5113903;28;20518;-69
2022/03/15 03:09:35;;;;;;;8.38;3.97;;;;;;;8.97;81.28;101158.28;5096447;28;20028;-69
2022/03/15 03:12:01;;;;;;;8.20;3.95;;;;;;;8.88;82.06;101143.31;5093118;28;20490;-69
2022/03/15 03:14:26;;;;;;;6.78;3.60;;;;;;;9.01;81.53;101155.59;5093115;28;20016;-69
2022/03/15 03:16:52;;;;;;;9.50;6.10;;;;;;;9.06;81.90;101153.78;5093177;28;20106;-70
2022/03/15 03:19:18;;;;;;;7.28;3.42;;;;;;;9.07;82.05;101150.25;5092718;28;20044;-69
2022/03/15 03:21:44;;;;;;;8.35;4.10;;;;;;;8.93;82.69;101146.81;5093309;28;20061;-69
2022/03/15 03:24:09;;;;;;;6.28;3.58;;;;;;;8.93;83.71;101140.63;5093324;28;20027;-69
2022/03/15 03:26:40;;;;;;;7.00;3.70;;;;;;;8.86;83.25;101123.00;5094998;28;20039;-69
2022/03/15 03:29:09;;;;;;;8.65;3.65;;;;;;;8.86;83.47;101138.94;5092428;28;20075;-69
2022/03/15 03:31:37;;;;;;;5.70;3.55;;;;;;;8.85;83.99;101143.34;5075653;28;20059;-70
2022/03/15 03:34:04;;;;;;;6.03;3.70;;;;;;;8.82;84.28;101138.06;5092680;28;20042;-70
2022/03/15 03:36:31;;;;;;;8.27;4.32;;;;;;;8.84;83.95;101135.41;5094769;28;20047;-70
2022/03/15 03:38:57;;;;;;;6.22;3.85;;;;;;;8.78;84.09;101141.63;5092294;28;20024;-70
2022/03/15 03:41:22;;;;;;;8.90;4.15;;;;;;;8.68;84.13;101129.31;5091790;28;20077;-69
2022/03/15 03:43:48;;;;;;;5.60;3.30;;;;;;;8.75;84.08;101148.72;5091943;28;20023;-70
2022/03/15 03:46:15;;;;;;;5.65;3.67;;;;;;;8.76;84.48;101150.50;5092420;28;20027;-70
2022/03/15 03:48:40;;;;;;;6.13;3.67;;;;;;;8.78;84.07;101140.75;5095343;28;20495;-69
2022/03/15 03:51:05;;;;;;;7.97;3.63;;;;;;;8.78;83.83;101130.16;5107697;28;20106;-69
2022/03/15 03:53:31;;;;;;;7.57;4.03;;;;;;;8.69;84.08;101120.50;5093546;28;20433;-69
2022/03/15 03:55:57;;;;;;;8.82;4.57;;;;;;;8.82;84.96;101127.47;5112414;28;20390;-69
2022/03/15 03:58:22;;;;;;;6.70;4.20;;;;;;;8.86;84.53;101138.94;5112529;28;20108;-69
2022/03/15 04:00:48;;;;;;;7.68;4.10;;;;;;;8.79;84.15;101132.78;5103139;28;20336;-69
2022/03/15 04:03:16;;;;;;;5.88;3.90;;;;;;;8.79;83.85;101137.22;5094661;28;20023;-69
2022/03/15 04:05:44;;;;;;;7.93;3.80;;;;;;;8.72;83.66;101143.44;5092032;28;20461;-69
2022/03/15 04:08:10;;;;;;;7.05;3.45;;;;;;;8.58;84.95;101142.66;5096663;28;20019;-69
2022/03/15 04:10:37;;;;;;;6.68;3.17;;;;;;;8.61;84.94;101130.28;5109216;28;20535;-69
2022/03/15 04:13:04;;;;;;;5.65;3.40;;;;;;;8.52;84.40;101129.44;5112478;28;20054;-69
2022/03/15 04:15:31;;;;;;;5.28;3.67;;;;;;;8.45;85.48;101141.00;5112147;28;20027;-69
2022/03/15 04:17:56;;;;;;;6.30;3.60;;;;;;;8.39;85.95;101152.50;5112374;28;20144;-69
2022/03/15 04:20:22;;;;;;;5.80;3.72;;;;;;;8.32;86.05;101145.47;5108125;28;20064;-69
2022/03/15 04:22:47;;;;;;;6.03;3.42;;;;;;;8.28;86.91;101142.84;5112476;28;20034;-69
2022/03/15 04:25:14;;;;;;;7.22;3.88;;;;;;;8.26;86.91;101144.63;5093682;28;20062;-69
2022/03/15 04:27:39;;;;;;;13.23;3.72;;;;;;;8.20;87.70;101140.22;5093796;28;20024;-69
2022/03/15 04:30:05;;;;;;;4.85;3.25;;;;;;;8.14;87.87;101140.22;5108469;28;20027;-69
2022/03/15 04:32:31;;;;;;;6.05;3.67;;;;;;;8.18;88.64;101142.00;5073777;28;20103;-69
2022/03/15 04:34:57;;;;;;;8.00;4.18;;;;;;;8.28;88.48;101145.50;5091450;28;20020;-69
2022/03/15 04:37:23;;;;;;;11.35;4.25;;;;;;;8.21;87.79;101135.78;5091401;28;20032;-69
2022/03/15 04:39:49;;;;;;;7.45;3.95;;;;;;;8.11;88.73;101120.81;5091366;28;20024;-69
2022/03/15 04:42:16;;;;;;;10.82;5.13;;;;;;;8.26;88.18;101137.56;5091356;28;20498;-69
2022/03/15 04:44:41;;;;;;;10.68;5.82;;;;;;;8.29;88.31;101137.53;5091647;28;20031;-69
2022/03/15 04:47:07;;;;;;;11.00;5.57;;;;;;;8.28;87.75;101126.94;5073257;28;20016;-69
2022/03/15 04:49:34;;;;;;;11.23;5.97;;;;;;;8.42;87.85;101131.28;5090833;28;20105;-69
2022/03/15 04:52:02;;;;;;;10.20;5.65;;;;;;;8.48;87.47;101125.94;5091047;28;20108;-69
2022/03/15 04:54:28;;;;;;;14.68;6.22;;;;;;;8.50;87.18;101128.59;5100904;28;20467;-69
2022/03/15 04:56:54;;;;;;;16.70;7.07;;;;;;;8.44;87.09;101112.69;5111469;28;20111;-69
2022/03/15 04:59:19;;;;;;;17.30;7.40;;;;;;;8.54;86.96;101117.06;5111085;28;20490;-70
2022/03/15 05:01:45;;;;;;;18.02;7.40;;;;;;;8.56;85.97;101128.53;5094141;28;20034;-69
2022/03/15 05:04:11;;;;;;;16.00;7.25;;;;;;;8.58;86.51;101124.13;5072547;28;20028;-69
2022/03/15 05:06:39;;;;;;;16.52;7.57;;;;;;;8.52;86.21;101113.53;5072862;28;20027;-69
2022/03/15 05:09:04;;;;;;;11.63;6.90;;;;;;;8.64;85.86;101129.38;5102537;28;20108;-69
2022/03/15 05:11:30;;;;;;;6.28;4.18;;;;;;;8.60;85.58;101123.19;5092856;28;20171;-69
2022/03/15 05:13:56;;;;;;;9.27;4.03;;;;;;;8.56;85.09;101123.22;5102639;28;20019;-69
2022/03/15 05:16:22;;;;;;;5.53;3.88;;;;;;;8.45;85.51;101111.81;5090637;28;20839;-69
2022/03/15 05:18:53;;;;;;;9.00;4.00;;;;;;;8.35;86.22;101099.53;5090636;28;20124;-69
2022/03/15 05:21:21;;;;;;;11.00;5.00;;;;;;;8.33;86.17;101111.91;5090743;28;20428;-69
2022/03/15 05:23:47;;;;;;;9.82;5.22;;;;;;;8.46;86.79;101114.47;5090778;28;20016;-69
2022/03/15 05:26:15;;;;;;;12.63;5.97;;;;;;;8.54;87.07;101114.41;5074159;28;20479;-69
2022/03/15 05:28:41;;;;;;;12.65;6.85;;;;;;;8.60;86.72;101115.25;5091127;28;20020;-69
2022/03/15 05:31:07;;;;;;;13.63;7.03;;;;;;;8.71;86.03;101124.03;5090290;28;20031;-69
2022/03/15 05:33:33;;;;;;;18.52;7.20;;;;;;;8.80;85.21;101117.72;5092755;28;20027;-69
2022/03/15 05:35:59;;;;;;;12.48;6.63;;;;;;;8.81;85.10;101117.72;5090734;28;20623;-69
2022/03/15 05:38:24;;;;;;;13.55;6.85;;;;;;;8.71;84.31;101125.78;5092728;28;20016;-69
2022/03/15 05:40:49;;;;;;;31.75;8.95;;;;;;;8.66;85.17;101120.53;5089798;28;20077;-69
2022/03/15 05:43:15;;;;;;;14.60;7.05;;;;;;;8.75;84.24;101131.03;5090276;28;20028;-69
2022/03/15 05:45:41;;;;;;;13.13;5.82;;;;;;;8.80;84.68;101123.03;5097122;28;20016;-69
2022/03/15 05:48:07;;;;;;;16.85;7.57;;;;;;;8.81;84.05;101124.81;5109911;28;20027;-69
2022/03/15 05:50:32;;;;;;;14.50;7.22;;;;;;;8.82;84.32;101129.22;5110122;28;20461;-69
2022/03/15 05:53:03;;;;;;;14.70;6.80;;;;;;;8.83;84.27;101131.00;5109159;28;20084;-69
2022/03/15 05:55:30;;;;;;;16.95;7.13;;;;;;;8.88;83.82;101129.19;5091748;28;20042;-69
2022/03/15 05:57:59;;;;;;;10.90;6.00;;;;;;;8.88;83.31;101137.16;5110323;28;20026;-69
2022/03/15 06:00:26;;;;;;;9.18;5.30;;;;;;;8.83;83.39;101133.66;5101385;28;20035;-69
2022/03/15 06:02:52;;;;;;;10.98;6.25;;;;;;;8.88;83.01;101129.19;5096712;28;20024;-69
2022/03/15 06:05:18;;;;;;;12.93;6.78;;;;;;;8.93;83.41;101127.34;5080477;28;20023;-69
2022/03/15 06:07:52;;;;;;;12.13;7.47;;;;;;;9.01;83.16;101123.75;5100484;28;20482;-69
2022/03/15 06:10:24;;;;;;;12.57;6.88;;;;;;;9.06;82.79;101121.94;5096182;28;20028;-69
2022/03/15 06:12:50;;;;;;;13.15;8.10;;;;;;;9.05;82.54;101135.22;5080889;28;20636;-69
2022/03/15 06:15:17;;;;;;;15.73;8.38;;;;;;;9.00;82.85;101127.31;5100378;28;20012;-69
2022/03/15 06:17:48;;;;;;;15.82;8.32;;;;;;;9.00;82.98;101115.81;5098015;28;20020;-69
2022/03/15 06:20:16;;;;;;;32.78;16.20;;;;;;;9.10;82.96;101128.09;5100586;28;20023;-69
2022/03/15 06:22:43;;;;;;;22.30;12.73;;;;;;;9.08;82.49;101137.84;5110291;28;20023;-69
2022/03/15 06:25:09;;;;;;;11.25;6.18;;;;;;;9.08;82.98;101133.44;5110151;28;20039;-69
2022/03/15 06:27:35;;;;;;;11.40;6.43;;;;;;;9.15;83.05;101128.94;5109593;28;20027;-69
2022/03/15 06:30:00;;;;;;;12.55;5.78;;;;;;;9.21;82.84;101126.22;5103978;28;20038;-69
2022/03/15 06:32:26;;;;;;;13.68;8.85;;;;;;;9.30;82.53;101127.03;5089708;28;20024;-69
2022/03/15 06:34:51;;;;;;;17.98;12.52;;;;;;;9.36;82.34;101126.06;5089293;28;20027;-69
2022/03/15 06:37:17;;;;;;;19.63;10.50;;;;;;;9.40;82.46;101117.19;5089482;28;20020;-69
2022/03/15 06:39:44;;;;;;;17.58;9.82;;;;;;;9.50;82.81;101118.88;5096526;28;20028;-69
2022/03/15 06:42:11;;;;;;;16.23;10.20;;;;;;;9.59;82.86;101116.09;5097909;28;20154;-69
2022/03/15 06:44:37;;;;;;;75.35;35.65;;;;;;;9.63;82.62;101108.97;5097280;28;20110;-69
2022/03/15 06:47:02;;;;;;;19.45;12.27;;;;;;;9.74;82.30;101105.28;5094633;28;20032;-69
2022/03/15 06:49:28;;;;;;;15.85;8.27;;;;;;;9.74;82.84;101097.31;5070800;28;20027;-69
2022/03/15 06:51:53;;;;;;;10.27;5.95;;;;;;;9.75;82.68;101091.09;5085970;28;20024;-69
2022/03/15 06:54:19;;;;;;;11.07;5.70;;;;;;;9.72;82.44;101077.84;5089308;28;20028;-69
2022/03/15 06:56:44;;;;;;;13.60;5.90;;;;;;;9.78;83.50;101090.19;5089196;28;20201;-69
2022/03/15 06:59:09;;;;;;;10.30;5.80;;;;;;;9.81;83.64;101080.41;5089302;28;20158;-69
2022/03/15 07:01:35;;;;;;;18.13;6.53;;;;;;;9.88;84.23;101076.78;5088576;28;20020;-69
2022/03/15 07:04:00;;;;;;;7.90;4.55;;;;;;;9.90;84.46;101082.09;5087827;28;20024;-70
2022/03/15 07:06:26;;;;;;;9.55;5.20;;;;;;;9.92;84.63;101085.56;5088624;28;20024;-69
2022/03/15 07:08:51;;;;;;;10.68;4.88;;;;;;;9.97;84.78;101079.31;5095353;28;20024;-69
2022/03/15 07:11:16;;;;;;;13.95;5.07;;;;;;;9.92;85.04;101061.66;5095782;28;20023;-69
2022/03/15 07:13:42;;;;;;;10.98;5.50;;;;;;;10.04;84.30;101080.09;5088236;28;20504;-70
2022/03/15 07:16:07;;;;;;;12.05;5.57;;;;;;;10.00;84.42;101068.63;5091530;28;20028;-69
2022/03/15 07:18:33;;;;;;;10.65;4.75;;;;;;;10.10;84.91;101074.72;5106437;28;20032;-69
2022/03/15 07:20:58;;;;;;;7.95;4.32;;;;;;;10.05;85.43;101082.75;5085897;28;20074;-70
2022/03/15 07:23:24;;;;;;;7.60;4.53;;;;;;;10.11;85.69;101072.09;5088292;28;20032;-69
2022/03/15 07:25:50;;;;;;;7.30;4.65;;;;;;;10.13;85.75;101070.25;5091787;28;20020;-69
2022/03/15 07:28:15;;;;;;;141.63;21.55;;;;;;;10.16;86.13;101070.25;5091964;28;20145;-69
2022/03/15 07:30:41;;;;;;;16.08;5.25;;;;;;;10.19;87.06;101058.66;5101654;28;20186;-69
2022/03/15 07:33:06;;;;;;;9.13;4.93;;;;;;;9.95;88.56;101064.31;5094254;28;20028;-70
2022/03/15 07:35:31;;;;;;;9.02;5.13;;;;;;;9.76;89.75;101041.50;5109253;28;20055;-69
2022/03/15 07:37:58;;;;;;;9.77;4.35;;;;;;;9.83;90.89;101049.41;5086104;28;20472;-69
2022/03/15 07:40:26;;;;;;;10.32;4.97;;;;;;;9.89;91.18;101053.72;5109608;28;20061;-69
2022/03/15 07:42:52;;;;;;;13.40;6.07;;;;;;;9.83;91.24;101028.13;5086115;28;20486;-70
2022/03/15 07:45:18;;;;;;;12.73;6.10;;;;;;;9.92;91.26;101053.69;5106538;28;20020;-69
2022/03/15 07:47:43;;;;;;;8.15;4.82;;;;;;;9.83;90.91;101038.78;5097907;28;20027;-70
2022/03/15 07:50:09;;;;;;;9.82;5.25;;;;;;;9.90;92.04;101031.59;5112384;28;20083;-69
2022/03/15 07:52:34;;;;;;;9.85;5.28;;;;;;;9.90;91.55;101035.09;5111739;28;20355;-69
2022/03/15 07:55:00;;;;;;;11.35;5.90;;;;;;;9.88;92.21;101026.31;5110431;28;20047;-69
2022/03/15 07:57:25;;;;;;;8.30;5.45;;;;;;;9.90;92.93;101023.63;5086880;28;20032;-69
2022/03/15 07:59:51;;;;;;;12.50;5.40;;;;;;;9.88;91.89;101002.38;5094539;28;20020;-69
2022/03/15 08:02:17;;;;;;;10.13;6.00;;;;;;;9.94;92.19;101026.22;5092149;28;20028;-69
2022/03/15 08:04:43;;;;;;;12.45;5.32;;;;;;;9.91;92.52;101017.41;5091816;28;20268;-70
2022/03/15 08:07:08;;;;;;;8.75;5.18;;;;;;;9.97;92.79;101018.19;5111747;28;20063;-69
2022/03/15 08:09:35;;;;;;;11.65;6.63;;;;;;;10.20;91.23;101023.19;5096164;28;20030;-69
2022/03/15 08:12:00;;;;;;;10.70;6.03;;;;;;;9.99;91.81;101023.47;5091486;28;20035;-69
2022/03/15 08:14:26;;;;;;;9.20;5.68;;;;;;;10.08;92.20;101013.63;5092801;28;20008;-70
2022/03/15 08:16:51;;;;;;;10.02;5.25;;;;;;;9.84;94.32;101016.59;5111349;28;20478;-69
2022/03/15 08:19:17;;;;;;;9.75;5.25;;;;;;;9.82;95.39;100998.94;5111256;28;20108;-69
2022/03/15 08:21:43;;;;;;;9.55;5.85;;;;;;;9.97;95.92;101011.97;5100604;28;20494;-69
2022/03/15 08:24:10;;;;;;;12.10;5.47;;;;;;;10.03;97.03;100999.47;5093556;28;20081;-68
2022/03/15 08:26:37;;;;;;;10.10;5.85;;;;;;;10.26;97.08;101018.66;5108569;28;20787;-68
2022/03/15 08:29:04;;;;;;;11.70;6.60;;;;;;;10.22;96.24;100995.69;5111615;28;20028;-69
2022/03/15 08:31:29;;;;;;;14.93;6.55;;;;;;;10.37;95.84;101022.06;5098482;28;20071;-69
2022/03/15 08:33:54;;;;;;;12.27;5.65;;;;;;;10.39;96.52;101014.91;5091171;28;20134;-68
2022/03/15 08:36:20;;;;;;;12.43;5.95;;;;;;;10.31;95.50;101003.50;5091532;28;20406;-68
2022/03/15 08:38:45;;;;;;;12.75;7.47;;;;;;;10.35;95.56;101002.56;5093092;28;20512;-69
2022/03/15 08:41:11;;;;;;;12.75;6.20;;;;;;;10.26;95.68;100989.41;5091273;28;20513;-68
2022/03/15 08:43:36;;;;;;;10.40;7.05;;;;;;;10.27;94.92;100980.56;5090954;28;20028;-68
2022/03/15 08:46:02;;;;;;;11.30;6.28;;;;;;;10.19;95.79;100962.97;5091367;28;20043;-68
2022/03/15 08:48:27;;;;;;;13.70;6.45;;;;;;;10.26;95.86;100975.25;5071247;28;20713;-69
2022/03/15 08:50:54;;;;;;;13.80;6.93;;;;;;;10.25;94.94;100979.69;5090840;28;20024;-68
2022/03/15 08:53:20;;;;;;;9.75;5.60;;;;;;;10.20;94.34;100962.94;5091230;28;20036;-68
2022/03/15 08:55:46;;;;;;;9.73;5.65;;;;;;;10.36;94.99;100979.53;5110331;28;20028;-69
2022/03/15 08:58:12;;;;;;;8.85;5.00;;;;;;;10.36;94.47;100975.06;5109304;28;20073;-68
2022/03/15 09:00:37;;;;;;;9.10;4.72;;;;;;;10.30;94.67;100976.94;5091098;28;20035;-69
2022/03/15 09:03:03;;;;;;;11.98;5.93;;;;;;;10.38;94.05;100975.91;5091725;28;20032;-68
2022/03/15 09:05:28;;;;;;;11.13;5.28;;;;;;;10.36;94.73;100969.75;5105147;28;20080;-68
2022/03/15 09:07:54;;;;;;;8.77;5.53;;;;;;;10.35;94.69;100965.34;5108600;28;20027;-69
2022/03/15 09:10:21;;;;;;;10.13;5.20;;;;;;;10.29;93.60;100961.91;5090749;28;20031;-68
2022/03/15 09:12:47;;;;;;;14.43;6.28;;;;;;;10.23;93.40;100954.03;5093062;28;20031;-68
2022/03/15 09:15:14;;;;;;;11.38;5.75;;;;;;;10.24;94.38;100959.34;5075137;28;20336;-68
2022/03/15 09:17:39;;;;;;;11.68;6.03;;;;;;;10.29;94.37;100948.63;5090454;28;20020;-68
2022/03/15 09:20:06;;;;;;;10.68;5.35;;;;;;;10.14;93.75;100931.13;5072245;28;20119;-68
2022/03/15 09:22:31;;;;;;;13.93;6.13;;;;;;;10.21;95.15;100945.22;5090769;28;20020;-68
2022/03/15 09:24:57;;;;;;;12.45;6.35;;;;;;;10.10;94.41;100921.44;5090791;28;20026;-68
2022/03/15 09:27:22;;;;;;;10.27;5.75;;;;;;;10.42;93.55;100940.41;5090231;28;20483;-68
2022/03/15 09:29:48;;;;;;;12.25;6.03;;;;;;;10.58;92.56;100941.00;5071966;28;20028;-68
2022/03/15 09:32:14;;;;;;;11.90;5.93;;;;;;;10.62;91.80;100932.06;5074509;28;20498;-68
2022/03/15 09:34:39;;;;;;;9.32;5.35;;;;;;;10.65;92.03;100934.66;5090812;28;20024;-68
2022/03/15 09:37:05;;;;;;;10.32;5.07;;;;;;;10.61;91.44;100931.19;5090432;28;20036;-68
2022/03/15 09:39:31;;;;;;;10.00;5.57;;;;;;;10.29;93.94;100937.97;5089955;28;20368;-68
2022/03/15 09:41:59;;;;;;;12.32;5.72;;;;;;;10.23;94.30;100933.63;5090329;28;20019;-68
2022/03/15 09:44:28;;;;;;;10.27;5.63;;;;;;;10.22;95.22;100926.56;5071849;28;20341;-68
2022/03/15 09:46:59;;;;;;;11.32;5.82;;;;;;;10.26;96.17;100925.59;5098336;28;20780;-68
2022/03/15 09:49:26;;;;;;;12.25;5.72;;;;;;;10.32;95.81;100929.94;5091613;28;20102;-68
2022/03/15 09:51:54;;;;;;;11.60;5.32;;;;;;;10.34;96.01;100917.50;5104758;28;20127;-68
2022/03/15 09:54:20;;;;;;;14.13;5.25;;;;;;;10.47;95.74;100924.38;5110409;28;20016;-68
2022/03/15 09:56:46;;;;;;;9.52;4.80;;;;;;;10.56;95.68;100922.41;5110278;28;20028;-68
2022/03/15 09:59:17;;;;;;;7.95;4.97;;;;;;;10.60;95.90;100913.47;5091486;28;20033;-68
2022/03/15 10:01:45;;;;;;;9.63;5.10;;;;;;;10.68;95.29;100904.44;5093625;28;20365;-68
2022/03/15 10:04:11;;;;;;;12.25;5.85;;;;;;;10.67;94.67;100895.63;5090061;28;20020;-68
2022/03/15 10:06:38;;;;;;;11.20;6.35;;;;;;;10.74;94.75;100883.94;5089915;28;20364;-68
2022/03/15 10:09:07;;;;;;;10.48;5.72;;;;;;;10.82;94.41;100881.13;5083362;28;20023;-68
2022/03/15 10:11:33;;;;;;;14.07;6.30;;;;;;;10.94;95.08;100870.25;5110338;28;20501;-68
2022/03/15 10:13:59;;;;;;;12.27;5.53;;;;;;;11.02;93.50;100873.63;5098409;28;20072;-68
2022/03/15 10:16:40;;;;;;;8.90;5.60;;;;;;;10.98;92.86;100859.50;5089540;28;20049;-68
2022/03/15 10:19:06;;;;;;;10.98;5.70;;;;;;;10.89;92.97;100842.84;5094445;28;20131;-68
2022/03/15 10:21:47;;;;;;;12.75;6.10;;;;;;;10.96;93.56;100855.09;5091915;28;20037;-68
2022/03/15 10:24:19;;;;;;;10.35;6.43;;;;;;;11.26;92.13;100851.78;5091455;28;20436;-68
2022/03/15 10:26:47;;;;;;;9.00;6.07;;;;;;;11.34;91.53;100853.38;5110774;28;20030;-68
2022/03/15 10:29:14;;;;;;;12.20;5.93;;;;;;;11.35;91.00;100854.25;5110044;28;20314;-68
2022/03/15 10:31:42;;;;;;;10.05;5.22;;;;;;;11.34;90.62;100860.47;5096760;28;20016;-68
2022/03/15 10:34:09;;;;;;;10.98;5.22;;;;;;;11.34;90.72;100845.38;5089662;28;20012;-68
2022/03/15 10:36:44;;;;;;;9.32;5.20;;;;;;;11.34;89.78;100839.19;5089392;28;20020;-68
2022/03/15 10:39:12;;;;;;;9.90;5.75;;;;;;;11.34;89.70;100834.72;5089416;28;20035;-68
2022/03/15 10:41:55;;;;;;;9.38;5.20;;;;;;;11.42;90.29;100826.56;5089677;28;20471;-68
2022/03/15 10:44:29;;;;;;;9.35;5.20;;;;;;;11.43;90.03;100823.84;5089124;28;20027;-68
2022/03/15 10:47:03;;;;;;;9.57;5.10;;;;;;;11.50;89.41;100827.25;5089588;28;20055;-68
2022/03/15 10:49:29;;;;;;;10.30;5.25;;;;;;;11.55;89.63;100831.56;5089228;28;20031;-68
2022/03/15 10:51:55;;;;;;;9.93;5.10;;;;;;;11.64;89.01;100827.84;5089731;28;20039;-68
2022/03/15 10:54:24;;;;;;;8.55;5.30;;;;;;;11.74;88.71;100830.28;5089009;28;20024;-68
2022/03/15 10:56:57;;;;;;;8.70;5.55;;;;;;;11.80;87.63;100815.91;5071033;28;20024;-69
2022/03/15 10:59:22;;;;;;;8.23;5.53;;;;;;;11.87;87.83;100804.19;5088891;28;20024;-68
2022/03/15 11:01:49;;;;;;;8.57;4.88;;;;;;;12.03;88.33;100810.84;5089348;28;20081;-68
2022/03/15 11:04:15;;;;;;;11.82;5.40;;;;;;;12.04;87.66;100804.63;5073253;28;20395;-68
2022/03/15 11:06:43;;;;;;;8.38;5.35;;;;;;;11.98;86.84;100804.75;5075268;28;20028;-68
2022/03/15 11:09:23;;;;;;;9.45;4.95;;;;;;;11.75;87.34;100788.47;5105777;28;20034;-68
2022/03/15 11:12:06;;;;;;;8.18;4.35;;;;;;;11.51;88.28;100789.06;5113808;28;20107;-68
2022/03/15 11:14:38;;;;;;;;;;;;;;;11.56;88.24;100793.38;5099988;28;20038;-68
2022/03/15 11:17:08;;;;;;;12.27;4.18;;;;;;;11.62;87.62;100782.56;5093403;28;20398;-68
2022/03/15 11:19:39;;;;;;;11.32;5.18;;;;;;;11.47;88.33;100760.72;5092773;28;20123;-68
2022/03/15 11:22:05;;;;;;;10.88;5.30;;;;;;;11.42;88.37;100784.81;5088549;28;20432;-68
2022/03/15 11:24:38;;;;;;;10.05;4.75;;;;;;;11.47;88.93;100776.72;5092603;28;20031;-68